Aérodrome :
LOGIN :

S'inscrire | Disclaimer

   EN    FR    IT 

 










Légende :    VFR   VFR Marginal   IFR   IFR Intensif   IFR Très Intensif
Visi : 
Plafond : 
>= 8 km
>= 3000ft
5 à 8 km
1000 à 3000 ft
1500m à 5 km
500 à 1000 ft
800 à 1500m
200 à 500 ft
< 800m
< 200 ft
Symboles :   Orages  Brouillard  Fortes neiges  Fortes précipitations  Vent > 20 kt
SIGMETs :   Divers  Orages  Givrage  Turbulence  Onde Orograph.  Cendres Volcan.






- Altitude de l'aérodrome : 359 ft
- Code IATA : BVA


LFOB - Beauvais

DERNIER METAR :
  • 172130Z AUTO 25015KT CAVOK 06/03 Q1022 TEMPO 25020G37KT 3000 SHRA BKN030CB

METARs EXPIRÉS :
  • 172100Z AUTO 24015KT CAVOK 06/03 Q1021 TEMPO 25020G37KT 3000 SHRA BKN030CB
  • 172030Z AUTO 24014KT 9999 SCT027 BKN034 07/03 Q1021 TEMPO 25020G37KT 3000 SHRA BKN030CB
  • 172000Z AUTO 24013KT CAVOK 07/03 Q1020 TEMPO 25020G37KT 3000 SHRA BKN030CB
  • 171930Z AUTO 24014KT 9999 FEW028 07/04 Q1020 TEMPO 25020G37KT 3000 SHRA BKN030CB
  • 171900Z AUTO 25008KT 9999 FEW031 07/04 Q1020 TEMPO 25020G37KT 3000 SHRA BKN030CB

TAF TAF LFOB
Valide du 17 à 18h jusqu'au 18 à 18h UTC


171700Z 1718/1818 25017G27KT 9999 BKN030
TEMPO 1718/1814 3000 SHRA BKN030CB
PROB40
TEMPO 1718/1724 25020G37KT
ATIS : +33 3 44 11 49 28



MET'MAP, la Météo Aéronautique d'un coup d'oeil ! - Copyright ORBIFLY Décembre 2007 - Disclaimer

ORBIFLY MET'MAP TEAM :

Programmation & Développement : Alexandra Zaïnal
Sur une idée originale de : Baudouin d'Aumeries
Assistance à la programmation : Marc-Olivier Méhu
Soutien technique & logistique : Manuel Goepfert

Contact : metmap@orbifly.com




SOURCES & CREDITS :

   NOAA